sensor_id;sensor_type;location;lat;lon;timestamp;pressure;altitude;pressure_sealevel;temperature;humidity
58467;BME280;44255;49.244;7.726;2022-08-26T03:31:55;98043.38;;;15.21;63.04
58467;BME280;44255;49.244;7.726;2022-08-26T03:34:21;98042.91;;;15.15;63.16
58467;BME280;44255;49.244;7.726;2022-08-26T03:36:46;98037.34;;;15.17;63.10
58467;BME280;44255;49.244;7.726;2022-08-26T03:39:12;98029.13;;;15.18;63.15
58467;BME280;44255;49.244;7.726;2022-08-26T03:41:38;98039.56;;;15.23;63.15
58467;BME280;44255;49.244;7.726;2022-08-26T03:44:05;98026.06;;;15.23;62.97
58467;BME280;44255;49.244;7.726;2022-08-26T03:46:32;98033.91;;;15.26;62.59
58467;BME280;44255;49.244;7.726;2022-08-26T03:48:58;98038.69;;;15.23;62.82
58467;BME280;44255;49.244;7.726;2022-08-26T03:51:24;98040.41;;;15.24;62.47
58467;BME280;44255;49.244;7.726;2022-08-26T03:53:50;98040.66;;;14.52;64.53
58467;BME280;44255;49.244;7.726;2022-08-26T03:56:15;98036.16;;;14.98;63.46
58467;BME280;44255;49.244;7.726;2022-08-26T03:58:40;98039.94;;;15.07;62.58
58467;BME280;44255;49.244;7.726;2022-08-26T04:01:09;98028.78;;;15.00;62.90
58467;BME280;44255;49.244;7.726;2022-08-26T04:03:35;98033.97;;;15.03;63.02
58467;BME280;44255;49.244;7.726;2022-08-26T04:06:18;98041.09;;;15.04;63.25
58467;BME280;44255;49.244;7.726;2022-08-26T04:08:44;98041.31;;;15.01;63.40
58467;BME280;44255;49.244;7.726;2022-08-26T04:11:24;98037.75;;;15.01;63.23
58467;BME280;44255;49.244;7.726;2022-08-26T04:13:54;98041.56;;;14.98;63.26
58467;BME280;44255;49.244;7.726;2022-08-26T04:16:20;98031.38;;;15.02;63.21
58467;BME280;44255;49.244;7.726;2022-08-26T04:18:45;98028.94;;;14.99;63.28
58467;BME280;44255;49.244;7.726;2022-08-26T04:21:11;98036.41;;;14.95;63.06
58467;BME280;44255;49.244;7.726;2022-08-26T04:23:37;98043.78;;;14.93;63.16
58467;BME280;44255;49.244;7.726;2022-08-26T04:26:03;98040.56;;;14.88;63.26
58467;BME280;44255;49.244;7.726;2022-08-26T04:28:29;98041.03;;;14.82;63.89
58467;BME280;44255;49.244;7.726;2022-08-26T04:30:54;98044.25;;;14.87;63.78
58467;BME280;44255;49.244;7.726;2022-08-26T04:33:20;98035.78;;;14.92;63.67
58467;BME280;44255;49.244;7.726;2022-08-26T04:35:46;98043.53;;;14.96;63.11
58467;BME280;44255;49.244;7.726;2022-08-26T04:38:11;98032.72;;;14.96;63.15
58467;BME280;44255;49.244;7.726;2022-08-26T04:40:42;98039.97;;;14.96;63.35
58467;BME280;44255;49.244;7.726;2022-08-26T04:43:07;98044.41;;;14.97;63.09
58467;BME280;44255;49.244;7.726;2022-08-26T04:45:35;98031.75;;;14.97;63.09
58467;BME280;44255;49.244;7.726;2022-08-26T04:48:01;98043.66;;;14.95;63.33
58467;BME280;44255;49.244;7.726;2022-08-26T04:50:27;98043.53;;;14.96;63.37
58467;BME280;44255;49.244;7.726;2022-08-26T04:52:52;98040.97;;;14.95;63.52
58467;BME280;44255;49.244;7.726;2022-08-26T04:55:17;98042.69;;;14.96;63.64
58467;BME280;44255;49.244;7.726;2022-08-26T04:57:43;98048.31;;;14.93;63.42
58467;BME280;44255;49.244;7.726;2022-08-26T05:00:08;98043.78;;;14.93;63.63
58467;BME280;44255;49.244;7.726;2022-08-26T05:02:36;98055.41;;;14.94;63.54
58467;BME280;44255;49.244;7.726;2022-08-26T05:05:02;98051.88;;;14.93;63.50
58467;BME280;44255;49.244;7.726;2022-08-26T05:07:29;98056.78;;;14.88;63.39
58467;BME280;44255;49.244;7.726;2022-08-26T05:09:55;98049.66;;;14.87;63.92
58467;BME280;44255;49.244;7.726;2022-08-26T05:12:20;98055.56;;;14.92;63.47
58467;BME280;44255;49.244;7.726;2022-08-26T05:14:45;98058.13;;;14.94;63.76
58467;BME280;44255;49.244;7.726;2022-08-26T05:17:11;98053.31;;;14.74;64.23
58467;BME280;44255;49.244;7.726;2022-08-26T05:19:36;98054.56;;;14.93;63.92
58467;BME280;44255;49.244;7.726;2022-08-26T05:22:02;98053.09;;;15.00;63.69
58467;BME280;44255;49.244;7.726;2022-08-26T05:24:27;98065.00;;;14.98;63.74
58467;BME280;44255;49.244;7.726;2022-08-26T05:26:54;98063.53;;;15.05;63.66
58467;BME280;44255;49.244;7.726;2022-08-26T05:29:19;98053.97;;;15.12;63.33
58467;BME280;44255;49.244;7.726;2022-08-26T05:31:44;98055.91;;;15.10;63.34
58467;BME280;44255;49.244;7.726;2022-08-26T05:34:09;98061.81;;;15.15;63.62
58467;BME280;44255;49.244;7.726;2022-08-26T05:36:35;98056.78;;;15.22;62.74
58467;BME280;44255;49.244;7.726;2022-08-26T05:39:02;98055.00;;;15.32;62.87
58467;BME280;44255;49.244;7.726;2022-08-26T05:41:30;98061.13;;;15.35;62.40
58467;BME280;44255;49.244;7.726;2022-08-26T05:43:58;98066.69;;;15.33;62.92
58467;BME280;44255;49.244;7.726;2022-08-26T05:46:24;98062.28;;;15.32;63.16
58467;BME280;44255;49.244;7.726;2022-08-26T05:48:56;98065.03;;;15.53;62.60
58467;BME280;44255;49.244;7.726;2022-08-26T05:51:22;98065.63;;;15.68;62.02
58467;BME280;44255;49.244;7.726;2022-08-26T05:53:48;98061.31;;;15.66;62.08
58467;BME280;44255;49.244;7.726;2022-08-26T05:56:14;98065.25;;;15.73;62.19
58467;BME280;44255;49.244;7.726;2022-08-26T05:58:41;98071.22;;;15.88;62.09
58467;BME280;44255;49.244;7.726;2022-08-26T06:03:36;98072.75;;;16.02;60.93
58467;BME280;44255;49.244;7.726;2022-08-26T06:06:07;98076.91;;;15.62;61.95
58467;BME280;44255;49.244;7.726;2022-08-26T06:08:34;98067.72;;;14.98;64.23
58467;BME280;44255;49.244;7.726;2022-08-26T06:11:02;98076.75;;;14.74;65.95
58467;BME280;44255;49.244;7.726;2022-08-26T06:13:29;98079.09;;;15.01;65.43
58467;BME280;44255;49.244;7.726;2022-08-26T06:15:55;98079.66;;;15.51;63.68
58467;BME280;44255;49.244;7.726;2022-08-26T06:18:24;98063.56;;;15.93;62.40
58467;BME280;44255;49.244;7.726;2022-08-26T06:20:51;98064.44;;;15.94;62.69
58467;BME280;44255;49.244;7.726;2022-08-26T06:23:19;98064.44;;;15.94;63.02
58467;BME280;44255;49.244;7.726;2022-08-26T06:26:04;98081.75;;;15.58;64.69
58467;BME280;44255;49.244;7.726;2022-08-26T06:28:30;98080.91;;;15.46;65.63
58467;BME280;44255;49.244;7.726;2022-08-26T06:30:55;98078.75;;;16.06;63.83
58467;BME280;44255;49.244;7.726;2022-08-26T06:33:22;98075.78;;;16.09;63.46
58467;BME280;44255;49.244;7.726;2022-08-26T06:35:48;98082.56;;;16.03;63.61
58467;BME280;44255;49.244;7.726;2022-08-26T06:38:14;98084.25;;;16.37;62.63
58467;BME280;44255;49.244;7.726;2022-08-26T06:40:50;98080.69;;;16.36;62.85
58467;BME280;44255;49.244;7.726;2022-08-26T06:43:19;98089.53;;;16.17;63.79
58467;BME280;44255;49.244;7.726;2022-08-26T06:45:45;98088.16;;;16.86;61.81
58467;BME280;44255;49.244;7.726;2022-08-26T06:48:17;98085.91;;;17.01;61.10
58467;BME280;44255;49.244;7.726;2022-08-26T06:50:44;98081.72;;;17.19;60.71
58467;BME280;44255;49.244;7.726;2022-08-26T06:53:10;98090.28;;;17.24;60.48
58467;BME280;44255;49.244;7.726;2022-08-26T06:55:44;98091.28;;;16.92;61.69
58467;BME280;44255;49.244;7.726;2022-08-26T06:58:10;98088.50;;;17.03;61.33
58467;BME280;44255;49.244;7.726;2022-08-26T07:00:37;98083.13;;;17.13;61.42
58467;BME280;44255;49.244;7.726;2022-08-26T07:03:04;98081.50;;;17.41;60.36
58467;BME280;44255;49.244;7.726;2022-08-26T07:05:29;98078.44;;;17.25;60.95
58467;BME280;44255;49.244;7.726;2022-08-26T07:07:55;98079.56;;;17.53;60.28
58467;BME280;44255;49.244;7.726;2022-08-26T07:10:23;98087.00;;;17.81;59.32
58467;BME280;44255;49.244;7.726;2022-08-26T07:12:48;98076.44;;;17.87;59.05
58467;BME280;44255;49.244;7.726;2022-08-26T07:15:13;98083.28;;;18.01;58.37
58467;BME280;44255;49.244;7.726;2022-08-26T07:17:39;98082.44;;;18.21;59.21
58467;BME280;44255;49.244;7.726;2022-08-26T07:20:04;98078.31;;;18.07;60.00
58467;BME280;44255;49.244;7.726;2022-08-26T07:22:32;98082.34;;;18.32;58.93
58467;BME280;44255;49.244;7.726;2022-08-26T07:24:57;98077.75;;;18.33;58.58
58467;BME280;44255;49.244;7.726;2022-08-26T07:27:23;98079.59;;;18.22;59.21
58467;BME280;44255;49.244;7.726;2022-08-26T07:29:48;98082.13;;;18.53;58.82
58467;BME280;44255;49.244;7.726;2022-08-26T07:32:15;98065.13;;;19.09;56.68
58467;BME280;44255;49.244;7.726;2022-08-26T07:34:41;98078.22;;;18.76;58.10
58467;BME280;44255;49.244;7.726;2022-08-26T07:37:06;98070.84;;;19.06;57.50
58467;BME280;44255;49.244;7.726;2022-08-26T07:39:32;98061.34;;;19.48;56.80
58467;BME280;44255;49.244;7.726;2022-08-26T07:42:00;98066.06;;;19.46;57.14
58467;BME280;44255;49.244;7.726;2022-08-26T07:44:26;98068.47;;;19.49;57.04
58467;BME280;44255;49.244;7.726;2022-08-26T07:46:52;98064.63;;;19.69;56.59
58467;BME280;44255;49.244;7.726;2022-08-26T07:49:17;98070.13;;;19.88;56.12
58467;BME280;44255;49.244;7.726;2022-08-26T07:51:43;98072.75;;;19.79;56.28
58467;BME280;44255;49.244;7.726;2022-08-26T07:54:08;98071.72;;;20.35;54.81
58467;BME280;44255;49.244;7.726;2022-08-26T07:56:34;98070.84;;;20.52;54.59
58467;BME280;44255;49.244;7.726;2022-08-26T07:58:59;98064.84;;;20.75;53.46
58467;BME280;44255;49.244;7.726;2022-08-26T08:01:25;98060.59;;;21.07;52.72
58467;BME280;44255;49.244;7.726;2022-08-26T08:03:52;98058.38;;;21.37;50.73
58467;BME280;44255;49.244;7.726;2022-08-26T08:06:23;98059.47;;;21.69;50.09
58467;BME280;44255;49.244;7.726;2022-08-26T08:08:49;98065.47;;;21.81;50.38
58467;BME280;44255;49.244;7.726;2022-08-26T08:11:16;98062.09;;;22.04;49.90
58467;BME280;44255;49.244;7.726;2022-08-26T08:13:41;98066.03;;;22.26;48.46
58467;BME280;44255;49.244;7.726;2022-08-26T08:16:07;98062.66;;;22.33;48.73
58467;BME280;44255;49.244;7.726;2022-08-26T08:18:33;98056.47;;;22.47;49.03
58467;BME280;44255;49.244;7.726;2022-08-26T08:20:58;98052.53;;;22.75;47.98
58467;BME280;44255;49.244;7.726;2022-08-26T08:23:27;98059.16;;;22.89;46.73
58467;BME280;44255;49.244;7.726;2022-08-26T08:26:11;98047.38;;;23.36;46.43
58467;BME280;44255;49.244;7.726;2022-08-26T08:28:37;98055.19;;;23.48;45.73
58467;BME280;44255;49.244;7.726;2022-08-26T08:31:02;98052.81;;;23.45;45.43
58467;BME280;44255;49.244;7.726;2022-08-26T08:33:29;98046.41;;;23.61;44.72
58467;BME280;44255;49.244;7.726;2022-08-26T08:35:56;98053.06;;;23.90;44.37
58467;BME280;44255;49.244;7.726;2022-08-26T08:38:21;98051.06;;;23.84;44.10
58467;BME280;44255;49.244;7.726;2022-08-26T08:40:46;98046.50;;;23.99;44.41
58467;BME280;44255;49.244;7.726;2022-08-26T08:43:14;98044.97;;;24.20;43.31
58467;BME280;44255;49.244;7.726;2022-08-26T08:45:45;98043.50;;;24.56;42.91
58467;BME280;44255;49.244;7.726;2022-08-26T08:48:23;98041.31;;;24.51;42.16
58467;BME280;44255;49.244;7.726;2022-08-26T08:51:02;98044.06;;;24.96;41.74
58467;BME280;44255;49.244;7.726;2022-08-26T08:53:36;98041.25;;;25.04;41.56
58467;BME280;44255;49.244;7.726;2022-08-26T08:56:24;98033.88;;;25.05;42.11
58467;BME280;44255;49.244;7.726;2022-08-26T09:06:40;98031.91;;;25.65;40.97
58467;BME280;44255;49.244;7.726;2022-08-26T09:09:06;98037.22;;;26.11;39.23
58467;BME280;44255;49.244;7.726;2022-08-26T09:11:38;98032.28;;;26.21;39.20
58467;BME280;44255;49.244;7.726;2022-08-26T09:14:03;98030.91;;;26.10;39.91
58467;BME280;44255;49.244;7.726;2022-08-26T09:19:08;98040.00;;;26.61;38.64
58467;BME280;44255;49.244;7.726;2022-08-26T09:21:38;98034.97;;;26.71;38.09
58467;BME280;44255;49.244;7.726;2022-08-26T09:24:03;98033.84;;;26.59;37.56
58467;BME280;44255;49.244;7.726;2022-08-26T09:26:42;98036.75;;;26.79;37.20
58467;BME280;44255;49.244;7.726;2022-08-26T09:29:35;98028.09;;;26.82;36.25
58467;BME280;44255;49.244;7.726;2022-08-26T09:32:21;98035.41;;;27.03;36.59
58467;BME280;44255;49.244;7.726;2022-08-26T09:37:52;98022.63;;;27.31;36.16
58467;BME280;44255;49.244;7.726;2022-08-26T09:40:32;98023.94;;;27.35;35.73
58467;BME280;44255;49.244;7.726;2022-08-26T09:45:27;98023.19;;;27.68;36.06
58467;BME280;44255;49.244;7.726;2022-08-26T09:47:54;98023.69;;;27.85;35.33
58467;BME280;44255;49.244;7.726;2022-08-26T09:50:28;98021.69;;;27.52;35.98
58467;BME280;44255;49.244;7.726;2022-08-26T09:53:27;98020.44;;;27.55;35.09
58467;BME280;44255;49.244;7.726;2022-08-26T09:58:40;98005.34;;;27.37;34.42
58467;BME280;44255;49.244;7.726;2022-08-26T10:01:08;98005.38;;;27.51;34.36
58467;BME280;44255;49.244;7.726;2022-08-26T10:03:38;98004.94;;;27.40;34.92
58467;BME280;44255;49.244;7.726;2022-08-26T10:08:45;98006.25;;;27.09;35.76
58467;BME280;44255;49.244;7.726;2022-08-26T10:11:48;98002.13;;;26.91;36.07
58467;BME280;44255;49.244;7.726;2022-08-26T10:14:28;97992.88;;;26.99;35.48
58467;BME280;44255;49.244;7.726;2022-08-26T10:17:23;97988.78;;;26.88;35.78
58467;BME280;44255;49.244;7.726;2022-08-26T10:19:54;97994.66;;;26.78;36.23
58467;BME280;44255;49.244;7.726;2022-08-26T10:22:36;97985.94;;;26.75;36.06
58467;BME280;44255;49.244;7.726;2022-08-26T10:25:10;97985.28;;;26.73;36.29
58467;BME280;44255;49.244;7.726;2022-08-26T10:27:44;97970.00;;;26.63;36.71
58467;BME280;44255;49.244;7.726;2022-08-26T10:30:15;97981.94;;;26.49;36.92
58467;BME280;44255;49.244;7.726;2022-08-26T10:32:45;97976.34;;;26.64;36.33
58467;BME280;44255;49.244;7.726;2022-08-26T10:35:14;97978.59;;;26.54;36.34
58467;BME280;44255;49.244;7.726;2022-08-26T10:38:03;97969.34;;;26.61;36.25
58467;BME280;44255;49.244;7.726;2022-08-26T10:43:13;97970.06;;;26.42;37.48
58467;BME280;44255;49.244;7.726;2022-08-26T10:45:47;97973.25;;;26.17;38.25
58467;BME280;44255;49.244;7.726;2022-08-26T10:48:22;97965.94;;;26.02;39.08
58467;BME280;44255;49.244;7.726;2022-08-26T10:50:48;97959.19;;;26.27;39.20
58467;BME280;44255;49.244;7.726;2022-08-26T10:59:38;97957.69;;;26.02;40.47
58467;BME280;44255;49.244;7.726;2022-08-26T11:02:26;97965.00;;;26.17;40.71
58467;BME280;44255;49.244;7.726;2022-08-26T11:04:58;97963.69;;;26.34;39.89
58467;BME280;44255;49.244;7.726;2022-08-26T11:09:55;97965.22;;;26.44;40.24
58467;BME280;44255;49.244;7.726;2022-08-26T11:14:59;97948.41;;;26.60;39.37
58467;BME280;44255;49.244;7.726;2022-08-26T11:22:36;97949.13;;;26.76;38.83
58467;BME280;44255;49.244;7.726;2022-08-26T11:25:09;97951.94;;;26.83;38.22
58467;BME280;44255;49.244;7.726;2022-08-26T11:30:32;97947.72;;;26.87;37.83
58467;BME280;44255;49.244;7.726;2022-08-26T11:32:58;97946.53;;;27.03;36.85
58467;BME280;44255;49.244;7.726;2022-08-26T11:38:02;97942.44;;;26.92;37.88
58467;BME280;44255;49.244;7.726;2022-08-26T11:40:30;97946.06;;;26.92;38.07
58467;BME280;44255;49.244;7.726;2022-08-26T11:42:59;97943.31;;;26.92;37.60
58467;BME280;44255;49.244;7.726;2022-08-26T11:45:33;97947.94;;;26.85;38.46
58467;BME280;44255;49.244;7.726;2022-08-26T11:50:53;97956.19;;;26.57;39.68
58467;BME280;44255;49.244;7.726;2022-08-26T11:53:20;97944.13;;;26.51;39.50
58467;BME280;44255;49.244;7.726;2022-08-26T11:55:47;97943.47;;;26.49;39.25
58467;BME280;44255;49.244;7.726;2022-08-26T11:58:14;97933.50;;;26.48;39.57
58467;BME280;44255;49.244;7.726;2022-08-26T12:03:09;97920.44;;;26.50;39.61
58467;BME280;44255;49.244;7.726;2022-08-26T12:05:42;97936.84;;;26.36;39.99
58467;BME280;44255;49.244;7.726;2022-08-26T12:08:13;97947.63;;;26.38;41.15
58467;BME280;44255;49.244;7.726;2022-08-26T12:10:40;97948.38;;;26.25;41.18
58467;BME280;44255;49.244;7.726;2022-08-26T12:13:07;97954.75;;;26.32;40.91
58467;BME280;44255;49.244;7.726;2022-08-26T12:15:33;97955.78;;;26.25;40.52
58467;BME280;44255;49.244;7.726;2022-08-26T12:18:19;97951.59;;;26.07;40.85
58467;BME280;44255;49.244;7.726;2022-08-26T12:20:46;97944.78;;;26.03;40.29
58467;BME280;44255;49.244;7.726;2022-08-26T12:23:45;97945.63;;;25.75;41.16
58467;BME280;44255;49.244;7.726;2022-08-26T12:26:25;97948.38;;;25.75;40.46
58467;BME280;44255;49.244;7.726;2022-08-26T12:29:41;97955.56;;;25.76;40.96
58467;BME280;44255;49.244;7.726;2022-08-26T12:31:42;97962.81;;;25.62;41.36
58467;BME280;44255;49.244;7.726;2022-08-26T12:34:13;97971.47;;;25.44;41.74
58467;BME280;44255;49.244;7.726;2022-08-26T12:36:46;97981.09;;;25.55;41.59
58467;BME280;44255;49.244;7.726;2022-08-26T12:39:33;97983.84;;;24.73;43.71
58467;BME280;44255;49.244;7.726;2022-08-26T12:42:01;97992.25;;;23.48;46.03
58467;BME280;44255;49.244;7.726;2022-08-26T12:47:32;97988.69;;;24.32;44.85
58467;BME280;44255;49.244;7.726;2022-08-26T12:50:16;97988.84;;;24.54;44.16
58467;BME280;44255;49.244;7.726;2022-08-26T12:55:46;98006.78;;;23.08;54.13
58467;BME280;44255;49.244;7.726;2022-08-26T13:00:54;97996.94;;;20.29;59.48
58467;BME280;44255;49.244;7.726;2022-08-26T13:14:09;98023.78;;;17.90;71.20
58467;BME280;44255;49.244;7.726;2022-08-26T13:16:36;98017.78;;;18.64;70.05
58467;BME280;44255;49.244;7.726;2022-08-26T13:19:05;98014.44;;;19.18;70.00
58467;BME280;44255;49.244;7.726;2022-08-26T13:21:34;98014.22;;;18.73;70.10
58467;BME280;44255;49.244;7.726;2022-08-26T13:24:05;98017.88;;;18.44;72.60
58467;BME280;44255;49.244;7.726;2022-08-26T13:26:31;98026.34;;;17.72;74.90
58467;BME280;44255;49.244;7.726;2022-08-26T13:28:56;98027.34;;;18.30;73.26
58467;BME280;44255;49.244;7.726;2022-08-26T13:31:24;98009.44;;;19.13;72.57
58467;BME280;44255;49.244;7.726;2022-08-26T13:33:50;98008.72;;;19.39;70.78
58467;BME280;44255;49.244;7.726;2022-08-26T13:36:15;97994.16;;;19.58;70.82
58467;BME280;44255;49.244;7.726;2022-08-26T13:38:40;97985.91;;;19.68;69.09
58467;BME280;44255;49.244;7.726;2022-08-26T13:41:06;97974.63;;;19.63;70.05
58467;BME280;44255;49.244;7.726;2022-08-26T13:43:31;97981.88;;;18.80;72.58
58467;BME280;44255;49.244;7.726;2022-08-26T13:45:57;97996.66;;;19.23;71.31
58467;BME280;44255;49.244;7.726;2022-08-26T13:48:22;98007.72;;;18.84;72.84
58467;BME280;44255;49.244;7.726;2022-08-26T13:50:48;98017.19;;;18.80;73.82
58467;BME280;44255;49.244;7.726;2022-08-26T13:53:15;98027.84;;;18.43;76.71
58467;BME280;44255;49.244;7.726;2022-08-26T13:55:40;98008.22;;;18.69;75.76
58467;BME280;44255;49.244;7.726;2022-08-26T13:58:06;98019.03;;;18.22;78.13
58467;BME280;44255;49.244;7.726;2022-08-26T14:00:32;98009.88;;;18.80;75.09
58467;BME280;44255;49.244;7.726;2022-08-26T14:02:59;98009.56;;;19.21;74.07
58467;BME280;44255;49.244;7.726;2022-08-26T14:05:24;98015.72;;;19.41;72.60
58467;BME280;44255;49.244;7.726;2022-08-26T14:07:50;98029.31;;;19.60;71.97
58467;BME280;44255;49.244;7.726;2022-08-26T14:10:15;98039.41;;;19.77;71.57
58467;BME280;44255;49.244;7.726;2022-08-26T14:12:41;98054.72;;;19.96;71.23
58467;BME280;44255;49.244;7.726;2022-08-26T14:15:08;98070.47;;;19.75;73.66
58467;BME280;44255;49.244;7.726;2022-08-26T14:17:33;98065.00;;;19.56;74.31
58467;BME280;44255;49.244;7.726;2022-08-26T14:19:59;98058.41;;;19.59;74.07
58467;BME280;44255;49.244;7.726;2022-08-26T14:22:24;98056.56;;;19.04;78.10
58467;BME280;44255;49.244;7.726;2022-08-26T14:24:49;98037.38;;;19.79;74.87
58467;BME280;44255;49.244;7.726;2022-08-26T14:27:15;98026.63;;;19.96;72.99
58467;BME280;44255;49.244;7.726;2022-08-26T14:29:41;98034.72;;;19.23;76.89
58467;BME280;44255;49.244;7.726;2022-08-26T14:32:21;98034.66;;;19.79;73.38
58467;BME280;44255;49.244;7.726;2022-08-26T14:34:47;98035.91;;;19.39;74.85
58467;BME280;44255;49.244;7.726;2022-08-26T14:37:13;98030.38;;;19.31;74.80
58467;BME280;44255;49.244;7.726;2022-08-26T14:39:38;98043.47;;;18.79;78.44
58467;BME280;44255;49.244;7.726;2022-08-26T14:42:03;98042.38;;;18.62;78.34
58467;BME280;44255;49.244;7.726;2022-08-26T14:44:31;98017.78;;;18.64;74.83
58467;BME280;44255;49.244;7.726;2022-08-26T14:47:00;97996.78;;;19.04;72.41
58467;BME280;44255;49.244;7.726;2022-08-26T14:49:25;97983.03;;;19.05;73.09
58467;BME280;44255;49.244;7.726;2022-08-26T14:51:51;97983.91;;;19.06;75.73
58467;BME280;44255;49.244;7.726;2022-08-26T14:54:17;97993.59;;;18.33;77.86
58467;BME280;44255;49.244;7.726;2022-08-26T14:56:55;98014.13;;;17.37;83.59
58467;BME280;44255;49.244;7.726;2022-08-26T14:59:31;98014.94;;;17.88;82.28
58467;BME280;44255;49.244;7.726;2022-08-26T15:01:57;98004.75;;;18.29;77.15
58467;BME280;44255;49.244;7.726;2022-08-26T15:04:23;97989.28;;;18.50;73.92
58467;BME280;44255;49.244;7.726;2022-08-26T15:06:50;97997.63;;;17.99;81.02
58467;BME280;44255;49.244;7.726;2022-08-26T15:09:16;97984.38;;;18.53;78.59
58467;BME280;44255;49.244;7.726;2022-08-26T15:11:41;97984.38;;;18.91;76.01
58467;BME280;44255;49.244;7.726;2022-08-26T15:14:07;97984.09;;;19.22;75.39
58467;BME280;44255;49.244;7.726;2022-08-26T15:16:33;97997.63;;;19.50;75.04
58467;BME280;44255;49.244;7.726;2022-08-26T15:18:59;98027.78;;;19.75;73.28
58467;BME280;44255;49.244;7.726;2022-08-26T15:21:25;98038.78;;;19.83;73.21
58467;BME280;44255;49.244;7.726;2022-08-26T15:23:51;98042.28;;;19.94;71.95
58467;BME280;44255;49.244;7.726;2022-08-26T15:26:17;98026.31;;;19.99;70.12
58467;BME280;44255;49.244;7.726;2022-08-26T15:28:43;98018.03;;;19.82;70.80
58467;BME280;44255;49.244;7.726;2022-08-26T15:31:09;98024.34;;;19.37;74.86
58467;BME280;44255;49.244;7.726;2022-08-26T15:33:35;98014.22;;;19.93;73.26
58467;BME280;44255;49.244;7.726;2022-08-26T15:36:02;98025.25;;;19.92;72.60
58467;BME280;44255;49.244;7.726;2022-08-26T15:38:36;98029.66;;;19.56;75.05
58467;BME280;44255;49.244;7.726;2022-08-26T15:41:03;98060.53;;;18.62;79.64
58467;BME280;44255;49.244;7.726;2022-08-26T15:43:30;98068.97;;;18.68;79.78
58467;BME280;44255;49.244;7.726;2022-08-26T15:45:55;98063.47;;;18.01;81.09
58467;BME280;44255;49.244;7.726;2022-08-26T15:48:21;98053.06;;;18.73;74.53
58467;BME280;44255;49.244;7.726;2022-08-26T15:50:51;98051.41;;;19.28;71.54
58467;BME280;44255;49.244;7.726;2022-08-26T15:53:18;98043.00;;;19.50;71.61
58467;BME280;44255;49.244;7.726;2022-08-26T15:55:43;98033.38;;;19.55;70.83
58467;BME280;44255;49.244;7.726;2022-08-26T15:58:08;98028.75;;;18.82;73.34
58467;BME280;44255;49.244;7.726;2022-08-26T16:00:35;98013.72;;;19.62;70.53
58467;BME280;44255;49.244;7.726;2022-08-26T16:03:00;98024.03;;;18.84;73.32
58467;BME280;44255;49.244;7.726;2022-08-26T16:05:26;98042.75;;;18.29;75.92
58467;BME280;44255;49.244;7.726;2022-08-26T16:07:51;98049.19;;;17.89;76.25
58467;BME280;44255;49.244;7.726;2022-08-26T16:10:16;98059.53;;;17.44;80.76
58467;BME280;44255;49.244;7.726;2022-08-26T16:12:42;98070.13;;;17.67;80.58
58467;BME280;44255;49.244;7.726;2022-08-26T16:15:08;98067.59;;;17.85;77.89
58467;BME280;44255;49.244;7.726;2022-08-26T16:17:34;98073.44;;;17.61;78.73
58467;BME280;44255;49.244;7.726;2022-08-26T16:19:59;98077.16;;;17.80;78.28
58467;BME280;44255;49.244;7.726;2022-08-26T16:22:24;98071.44;;;17.73;77.70
58467;BME280;44255;49.244;7.726;2022-08-26T16:24:55;98075.94;;;17.43;79.19
58467;BME280;44255;49.244;7.726;2022-08-26T16:27:20;98075.66;;;17.46;77.95
58467;BME280;44255;49.244;7.726;2022-08-26T16:29:45;98084.16;;;16.91;82.55
58467;BME280;44255;49.244;7.726;2022-08-26T16:32:11;98088.13;;;17.17;82.39
58467;BME280;44255;49.244;7.726;2022-08-26T16:34:36;98092.13;;;17.23;82.35
58467;BME280;44255;49.244;7.726;2022-08-26T16:37:01;98086.03;;;18.11;76.84
58467;BME280;44255;49.244;7.726;2022-08-26T16:39:27;98094.00;;;18.23;76.51
58467;BME280;44255;49.244;7.726;2022-08-26T16:41:52;98077.91;;;18.11;76.05
58467;BME280;44255;49.244;7.726;2022-08-26T16:44:17;98066.75;;;18.34;75.40
58467;BME280;44255;49.244;7.726;2022-08-26T16:46:43;98076.31;;;18.38;75.98
58467;BME280;44255;49.244;7.726;2022-08-26T16:49:09;98075.78;;;18.82;74.03
58467;BME280;44255;49.244;7.726;2022-08-26T16:51:34;98058.84;;;19.08;73.17
58467;BME280;44255;49.244;7.726;2022-08-26T16:54:01;98061.50;;;19.18;71.83
58467;BME280;44255;49.244;7.726;2022-08-26T16:56:28;98053.19;;;19.20;71.98
58467;BME280;44255;49.244;7.726;2022-08-26T16:58:54;98040.53;;;19.28;71.24
58467;BME280;44255;49.244;7.726;2022-08-26T17:01:20;98027.81;;;19.29;71.32
58467;BME280;44255;49.244;7.726;2022-08-26T17:03:46;98031.69;;;19.26;71.98
58467;BME280;44255;49.244;7.726;2022-08-26T17:06:11;98032.94;;;19.04;73.16
58467;BME280;44255;49.244;7.726;2022-08-26T17:08:37;98035.44;;;18.50;75.42
58467;BME280;44255;49.244;7.726;2022-08-26T17:11:04;98029.38;;;18.66;75.93
58467;BME280;44255;49.244;7.726;2022-08-26T17:13:29;98016.38;;;18.97;74.21
58467;BME280;44255;49.244;7.726;2022-08-26T17:15:55;98018.22;;;19.07;73.90
58467;BME280;44255;49.244;7.726;2022-08-26T17:18:22;98017.50;;;18.67;74.55
58467;BME280;44255;49.244;7.726;2022-08-26T17:20:48;98028.75;;;18.34;75.44
58467;BME280;44255;49.244;7.726;2022-08-26T17:23:14;98026.34;;;18.31;76.57
58467;BME280;44255;49.244;7.726;2022-08-26T17:25:39;98030.44;;;18.45;74.78
58467;BME280;44255;49.244;7.726;2022-08-26T17:28:05;98029.16;;;18.39;76.35
58467;BME280;44255;49.244;7.726;2022-08-26T17:30:30;98032.47;;;17.74;80.35
58467;BME280;44255;49.244;7.726;2022-08-26T17:32:55;98026.50;;;17.10;84.67
58467;BME280;44255;49.244;7.726;2022-08-26T17:35:21;98038.69;;;16.84;86.61
58467;BME280;44255;49.244;7.726;2022-08-26T17:37:46;98038.34;;;17.09;83.80
58467;BME280;44255;49.244;7.726;2022-08-26T17:40:14;98046.38;;;16.89;84.28
58467;BME280;44255;49.244;7.726;2022-08-26T17:42:40;98049.00;;;17.00;82.51
58467;BME280;44255;49.244;7.726;2022-08-26T17:45:07;98046.66;;;16.86;84.94
58467;BME280;44255;49.244;7.726;2022-08-26T17:47:32;98042.91;;;17.18;82.29
58467;BME280;44255;49.244;7.726;2022-08-26T17:49:58;98049.56;;;16.94;84.91